createdAt,value
2023-01-19T00:01:24.973Z,3.67
2023-01-19T00:03:52.391Z,3.69
2023-01-19T00:06:20.225Z,3.75
2023-01-19T00:08:49.685Z,3.80
2023-01-19T00:11:18.139Z,3.83
2023-01-19T00:13:51.074Z,3.82
2023-01-19T00:16:19.677Z,3.82
2023-01-19T00:18:46.814Z,3.76
2023-01-19T00:21:16.886Z,3.77
2023-01-19T00:23:47.569Z,3.82
2023-01-19T00:26:16.420Z,3.88
2023-01-19T00:28:44.506Z,3.89
2023-01-19T00:31:11.974Z,3.89
2023-01-19T00:33:39.106Z,3.89
2023-01-19T00:36:06.514Z,3.96
2023-01-19T00:38:34.168Z,3.98
2023-01-19T00:41:01.590Z,3.99
2023-01-19T00:43:28.598Z,3.96
2023-01-19T00:45:56.503Z,3.94
2023-01-19T00:48:24.095Z,3.91
2023-01-19T00:50:51.195Z,3.91
2023-01-19T00:53:18.807Z,3.85
2023-01-19T00:55:46.211Z,3.81
2023-01-19T00:58:13.273Z,3.82
2023-01-19T01:00:42.848Z,3.83
2023-01-19T01:03:10.541Z,3.82
2023-01-19T01:05:41.428Z,3.83
2023-01-19T01:08:08.653Z,3.91
2023-01-19T01:10:36.969Z,3.95
2023-01-19T01:13:21.182Z,3.98
2023-01-19T01:15:53.283Z,3.99
2023-01-19T01:18:21.168Z,3.97
2023-01-19T01:20:48.714Z,3.99
2023-01-19T01:23:16.403Z,4.01
2023-01-19T01:25:43.852Z,4.01
2023-01-19T01:28:10.996Z,3.99
2023-01-19T01:30:41.264Z,3.97
2023-01-19T01:33:09.516Z,3.99
2023-01-19T01:35:36.782Z,3.95
2023-01-19T01:38:04.868Z,3.89
2023-01-19T01:40:32.286Z,3.90
2023-01-19T01:43:00.106Z,3.92
2023-01-19T01:45:31.862Z,3.88
2023-01-19T01:48:19.248Z,3.91
2023-01-19T01:51:10.764Z,3.94
2023-01-19T01:53:38.942Z,3.96
2023-01-19T01:56:09.298Z,3.90
2023-01-19T01:58:37.613Z,3.88
2023-01-19T02:01:23.614Z,3.88
2023-01-19T02:03:51.760Z,3.89
2023-01-19T02:06:19.157Z,3.83
2023-01-19T02:09:17.844Z,3.83
2023-01-19T02:12:03.652Z,3.78
2023-01-19T02:14:31.267Z,3.77
2023-01-19T02:16:58.792Z,3.73
2023-01-19T02:19:31.090Z,3.73
2023-01-19T02:22:32.484Z,3.71
2023-01-19T02:24:59.628Z,3.68
2023-01-19T02:27:27.458Z,3.67
2023-01-19T02:29:54.931Z,3.65
2023-01-19T02:32:22.057Z,3.61
2023-01-19T02:34:49.621Z,3.61
2023-01-19T02:37:17.336Z,3.61
2023-01-19T02:39:47.524Z,3.64
2023-01-19T02:42:30.693Z,3.65
2023-01-19T02:44:58.564Z,3.66
2023-01-19T02:47:25.983Z,3.66
2023-01-19T02:50:00.921Z,3.69
2023-01-19T02:52:28.443Z,3.70
2023-01-19T02:55:09.949Z,3.74
2023-01-19T02:57:44.072Z,3.75
2023-01-19T03:00:11.543Z,3.77
2023-01-19T03:02:53.940Z,3.76
2023-01-19T03:05:25.144Z,3.80
2023-01-19T03:08:10.935Z,3.78
2023-01-19T03:10:41.442Z,3.79
2023-01-19T03:13:18.177Z,3.84
2023-01-19T03:15:51.296Z,3.82
2023-01-19T03:18:20.477Z,3.79
2023-01-19T03:20:47.937Z,3.83
2023-01-19T03:23:15.161Z,3.81
2023-01-19T03:25:43.924Z,3.81
2023-01-19T03:28:11.011Z,3.81
2023-01-19T03:30:45.702Z,3.76
2023-01-19T03:33:26.224Z,3.70
2023-01-19T03:35:57.070Z,3.70
2023-01-19T03:38:27.139Z,3.66
2023-01-19T03:40:56.614Z,3.64
2023-01-19T03:43:25.959Z,3.64
2023-01-19T03:45:52.879Z,3.61
2023-01-19T03:56:19.354Z,3.41
2023-01-19T03:58:46.233Z,3.42
2023-01-19T04:01:14.508Z,3.42
2023-01-19T04:03:41.919Z,3.41
2023-01-19T04:06:09.375Z,3.40
2023-01-19T04:08:36.754Z,3.37
2023-01-19T04:11:03.669Z,3.36
2023-01-19T04:13:31.847Z,3.38
2023-01-19T04:16:02.623Z,3.35
2023-01-19T04:18:30.160Z,3.35
2023-01-19T04:21:01.081Z,3.39
2023-01-19T04:23:27.919Z,3.39
2023-01-19T04:25:58.658Z,3.40
2023-01-19T04:28:25.709Z,3.45
2023-01-19T04:30:52.233Z,3.42
2023-01-19T04:33:19.323Z,3.42
2023-01-19T04:35:46.646Z,3.40
2023-01-19T04:38:13.583Z,3.39
2023-01-19T04:40:40.344Z,3.40
2023-01-19T04:43:08.114Z,3.42
2023-01-19T04:45:36.254Z,3.43
2023-01-19T04:48:06.416Z,3.47
2023-01-19T04:50:32.949Z,3.52
2023-01-19T04:53:00.364Z,3.54
2023-01-19T04:55:27.525Z,3.55
2023-01-19T05:04:15.671Z,3.68
2023-01-19T05:06:43.499Z,3.68
2023-01-19T05:09:14.711Z,3.68
2023-01-19T05:11:42.373Z,3.69
2023-01-19T05:14:10.142Z,3.67
2023-01-19T05:16:37.295Z,3.66
2023-01-19T05:19:41.628Z,3.69
2023-01-19T05:22:08.871Z,3.68
2023-01-19T05:24:36.416Z,3.65
2023-01-19T05:27:03.978Z,3.70
2023-01-19T05:29:31.029Z,3.68
2023-01-19T05:31:58.038Z,3.64
2023-01-19T05:34:24.915Z,3.65
2023-01-19T05:36:52.282Z,3.64
2023-01-19T05:39:19.480Z,3.64
2023-01-19T05:41:47.295Z,3.63
2023-01-19T05:44:13.899Z,3.59
2023-01-19T05:46:41.447Z,3.59
2023-01-19T05:49:08.731Z,3.58
2023-01-19T05:51:38.049Z,3.59
2023-01-19T05:54:05.285Z,3.59
2023-01-19T05:56:33.074Z,3.55
2023-01-19T05:59:00.011Z,3.55
2023-01-19T06:01:26.972Z,3.57
2023-01-19T06:03:55.316Z,3.58
2023-01-19T06:06:21.753Z,3.61
2023-01-19T06:08:48.486Z,3.67
2023-01-19T06:11:15.546Z,3.68
2023-01-19T06:13:59.484Z,3.73
2023-01-19T06:16:27.420Z,3.79
2023-01-19T09:05:36.157Z,6.84
2023-01-19T09:08:11.552Z,6.76
2023-01-19T09:10:44.695Z,6.71
2023-01-19T09:13:13.277Z,6.67
2023-01-19T09:15:41.937Z,6.62
2023-01-19T09:18:18.918Z,6.65
2023-01-19T09:20:48.391Z,6.65
2023-01-19T09:23:18.934Z,6.61
2023-01-19T09:25:47.187Z,6.64
2023-01-19T09:28:16.234Z,6.72
2023-01-19T09:30:45.219Z,6.72
2023-01-19T09:33:15.336Z,6.68
2023-01-19T09:35:43.583Z,6.69
2023-01-19T09:38:12.383Z,6.70
2023-01-19T09:40:45.076Z,6.67
2023-01-19T09:43:26.005Z,6.66
2023-01-19T09:46:00.211Z,6.65
2023-01-19T09:48:43.138Z,6.64
2023-01-19T09:51:23.323Z,6.71
2023-01-19T09:59:59.981Z,6.89
2023-01-19T10:02:56.029Z,6.88
2023-01-19T10:05:38.431Z,6.95
2023-01-19T10:08:37.072Z,7.01
2023-01-19T10:11:06.705Z,7.03
2023-01-19T10:13:49.679Z,7.09
2023-01-19T10:16:20.679Z,7.13
2023-01-19T10:18:51.744Z,7.13
2023-01-19T10:21:31.670Z,7.22
2023-01-19T10:24:05.871Z,7.23
2023-01-19T10:26:37.599Z,7.23
2023-01-19T10:29:14.931Z,7.29
2023-01-19T10:31:43.252Z,7.25
2023-01-19T10:34:23.227Z,7.27
2023-01-19T10:37:19.807Z,7.30
2023-01-19T10:40:11.212Z,7.27
2023-01-19T10:42:41.057Z,7.30
2023-01-19T10:45:18.489Z,7.34
2023-01-19T10:47:47.125Z,7.36
2023-01-19T10:50:30.776Z,7.42
2023-01-19T10:53:00.011Z,7.45
2023-01-19T10:55:36.770Z,7.46
2023-01-19T10:58:05.031Z,7.47
2023-01-19T11:00:43.679Z,7.55
2023-01-19T14:04:57.468Z,6.76
2023-01-19T14:07:28.596Z,6.85
2023-01-19T14:10:09.070Z,7.01
2023-01-19T14:12:45.577Z,7.10
2023-01-19T14:15:20.453Z,7.13
2023-01-19T14:18:09.593Z,7.19
2023-01-19T14:20:37.916Z,7.25
2023-01-19T14:23:07.317Z,7.26
2023-01-19T14:25:39.739Z,7.28
2023-01-19T14:28:30.759Z,7.32
2023-01-19T14:31:04.973Z,7.35
2023-01-19T14:33:45.983Z,7.37
2023-01-19T14:36:34.130Z,7.40
2023-01-19T14:39:03.415Z,7.43
2023-01-19T14:41:48.910Z,7.42
2023-01-19T14:44:40.443Z,7.41
2023-01-19T14:47:32.612Z,7.43
2023-01-19T14:50:05.127Z,7.44
2023-01-19T14:52:36.395Z,7.42
2023-01-19T14:55:08.415Z,7.43
2023-01-19T14:57:37.479Z,7.46
2023-01-19T15:00:19.903Z,7.44
2023-01-19T15:02:48.638Z,7.42
2023-01-19T15:05:17.020Z,7.42
2023-01-19T15:07:45.861Z,7.42
2023-01-19T15:10:18.032Z,7.42
2023-01-19T15:12:46.900Z,7.40
2023-01-19T15:15:22.864Z,7.42
2023-01-19T15:17:50.725Z,7.44
2023-01-19T15:20:19.895Z,7.42
2023-01-19T15:22:48.195Z,7.38
2023-01-19T15:25:17.284Z,7.39
2023-01-19T15:27:45.256Z,7.37
2023-01-19T15:30:35.185Z,7.33
2023-01-19T15:33:04.632Z,7.28
2023-01-19T15:35:32.427Z,7.33
2023-01-19T15:38:00.184Z,7.31
2023-01-19T15:40:28.326Z,7.24
2023-01-19T15:42:56.114Z,7.19
2023-01-19T15:45:45.844Z,7.20
2023-01-19T15:48:14.448Z,7.17
2023-01-19T15:50:42.980Z,7.12
2023-01-19T15:53:16.800Z,7.07
2023-01-19T15:55:44.747Z,7.06
2023-01-19T15:58:14.267Z,7.03
2023-01-19T16:00:42.560Z,6.97
2023-01-19T16:03:10.909Z,6.96
2023-01-19T16:05:43.587Z,6.96
2023-01-19T16:08:12.266Z,6.92
2023-01-19T16:10:41.977Z,6.87
2023-01-19T16:13:11.343Z,6.88
2023-01-19T16:15:40.367Z,6.87
2023-01-19T16:18:08.449Z,6.83
2023-01-19T16:20:37.101Z,6.81
2023-01-19T16:23:20.120Z,6.82
2023-01-19T16:26:04.991Z,6.80
2023-01-19T16:28:33.888Z,6.76
2023-01-19T16:31:02.168Z,6.78
2023-01-19T16:33:30.518Z,6.76
2023-01-19T16:35:59.384Z,6.73
2023-01-19T16:38:27.324Z,6.69
2023-01-19T16:40:55.919Z,6.74
2023-01-19T16:43:23.856Z,6.73
2023-01-19T16:46:17.266Z,6.68
2023-01-19T16:48:45.814Z,6.66
2023-01-19T16:51:13.584Z,6.64
2023-01-19T16:53:41.839Z,6.62
2023-01-19T16:56:11.407Z,6.58
2023-01-19T16:58:39.827Z,6.57
2023-01-19T17:01:17.789Z,6.57
2023-01-19T17:03:48.055Z,6.55
2023-01-19T17:06:20.668Z,6.53
2023-01-19T17:08:48.619Z,6.54
2023-01-19T17:11:21.739Z,6.53
2023-01-19T17:13:50.443Z,6.48
2023-01-19T17:16:18.481Z,6.51
2023-01-19T17:18:46.572Z,6.50
2023-01-19T17:21:18.377Z,6.48
2023-01-19T17:23:46.997Z,6.46
2023-01-19T17:26:15.052Z,6.49
2023-01-19T17:28:42.803Z,6.47
2023-01-19T17:31:12.364Z,6.43
2023-01-19T17:33:40.450Z,6.42
2023-01-19T17:36:10.529Z,6.45
2023-01-19T17:38:38.184Z,6.44
2023-01-19T17:41:33.278Z,6.42
2023-01-19T17:44:01.468Z,6.40
2023-01-19T17:46:29.932Z,6.43
2023-01-19T17:49:00.243Z,6.41
2023-01-19T17:51:28.303Z,6.37
2023-01-19T17:53:55.979Z,6.34
2023-01-19T17:56:30.534Z,6.37
2023-01-19T17:58:58.887Z,6.37
2023-01-19T18:01:27.795Z,6.34
2023-01-19T18:03:55.152Z,6.29
2023-01-19T18:06:22.951Z,6.29
2023-01-19T18:08:50.443Z,6.26
2023-01-19T18:11:19.698Z,6.23
2023-01-19T18:13:48.503Z,6.22
2023-01-19T18:16:18.980Z,6.25
2023-01-19T18:18:47.197Z,6.26
2023-01-19T18:21:15.306Z,6.27
2023-01-19T18:23:45.428Z,6.25
2023-01-19T18:26:15.432Z,6.22
2023-01-19T18:28:42.691Z,6.21
2023-01-19T18:31:12.475Z,6.20
2023-01-19T18:33:40.858Z,6.20
2023-01-19T18:36:08.963Z,6.16
2023-01-19T18:38:37.097Z,6.13
2023-01-19T18:41:07.516Z,6.15
2023-01-19T18:43:35.232Z,6.12
2023-01-19T18:46:03.305Z,6.10
2023-01-19T18:48:31.480Z,6.05
2023-01-19T18:51:03.615Z,6.07
2023-01-19T18:53:32.804Z,6.03
2023-01-19T18:56:02.322Z,6.02
2023-01-19T18:58:31.825Z,5.98
2023-01-19T19:01:01.222Z,5.98
2023-01-19T19:03:29.863Z,5.95
2023-01-19T19:06:01.879Z,5.91
2023-01-19T19:08:29.585Z,5.88
2023-01-19T19:10:57.309Z,5.87
2023-01-19T19:13:26.645Z,5.82
2023-01-19T19:15:54.794Z,5.79
2023-01-19T19:18:22.746Z,5.78
2023-01-19T19:20:50.916Z,5.80
2023-01-19T19:23:18.683Z,5.78
2023-01-19T19:25:47.483Z,5.76
2023-01-19T19:28:15.133Z,5.75
2023-01-19T19:30:43.209Z,5.76
2023-01-19T19:33:12.395Z,5.73
2023-01-19T19:35:40.471Z,5.69
2023-01-19T19:38:08.261Z,5.67
2023-01-19T19:40:35.505Z,5.68
2023-01-19T19:43:02.954Z,5.68
2023-01-19T19:45:30.863Z,5.68
2023-01-19T19:47:58.884Z,5.66
2023-01-19T19:50:26.350Z,5.66
2023-01-19T19:52:54.686Z,5.68
2023-01-19T19:55:22.432Z,5.66
2023-01-19T19:57:50.262Z,5.60
2023-01-19T20:00:19.059Z,5.54
2023-01-19T20:02:47.109Z,5.47
2023-01-19T20:05:15.407Z,5.46
2023-01-19T20:07:48.541Z,5.47
2023-01-19T20:10:16.341Z,5.45
2023-01-19T20:12:44.791Z,5.41
2023-01-19T20:15:12.909Z,5.39
2023-01-19T20:17:41.073Z,5.37
2023-01-19T20:20:09.877Z,5.32
2023-01-19T20:22:37.930Z,5.24
2023-01-19T20:25:07.053Z,5.19
2023-01-19T20:27:35.444Z,5.17
2023-01-19T20:30:04.110Z,5.15
2023-01-19T20:32:32.356Z,5.10
2023-01-19T20:35:00.549Z,5.04
2023-01-19T20:37:28.312Z,5.02
2023-01-19T20:39:55.855Z,4.97
2023-01-19T20:42:24.451Z,4.93
2023-01-19T20:44:51.514Z,4.90
2023-01-19T20:47:19.050Z,4.90
2023-01-19T20:56:07.575Z,4.81
2023-01-19T20:58:35.098Z,4.76
2023-01-19T21:01:11.438Z,4.68
2023-01-19T21:03:39.443Z,4.64
2023-01-19T21:06:07.871Z,4.63
2023-01-19T21:08:35.154Z,4.59
2023-01-19T21:11:02.405Z,4.54
2023-01-19T21:13:30.908Z,4.54
2023-01-19T21:15:59.091Z,4.53
2023-01-19T21:18:28.260Z,4.46
2023-01-19T21:20:58.053Z,4.40
2023-01-19T21:23:26.682Z,4.36
2023-01-19T21:25:56.051Z,4.35
2023-01-19T21:28:24.638Z,4.32
2023-01-19T21:30:52.841Z,4.30
2023-01-19T21:33:20.814Z,4.30
2023-01-19T21:35:56.633Z,4.29
2023-01-19T21:38:27.371Z,4.26
2023-01-19T21:40:56.364Z,4.23
2023-01-19T21:43:24.137Z,4.23
2023-01-19T21:45:52.009Z,4.23
2023-01-19T21:48:20.317Z,4.20
2023-01-19T21:50:57.661Z,4.20
2023-01-19T21:53:24.910Z,4.18
2023-01-19T21:55:52.298Z,4.14
2023-01-19T21:58:19.449Z,4.13
2023-01-19T22:00:46.871Z,4.15
2023-01-19T22:03:14.764Z,4.12
2023-01-19T22:05:42.203Z,4.10
2023-01-19T22:08:09.974Z,4.08
2023-01-19T22:10:38.045Z,4.07
2023-01-19T22:13:06.920Z,4.02
2023-01-19T22:15:34.498Z,3.99
2023-01-19T22:18:01.743Z,3.99
2023-01-19T22:20:29.502Z,3.99
2023-01-19T22:22:57.226Z,3.95
2023-01-19T22:25:28.015Z,3.91
2023-01-19T22:27:56.576Z,3.89
2023-01-19T22:30:24.580Z,3.90
2023-01-19T22:32:53.193Z,3.87
2023-01-19T22:35:21.846Z,3.83
2023-01-19T22:37:49.684Z,3.79
2023-01-19T22:40:18.161Z,3.77
2023-01-19T22:42:50.491Z,3.76
2023-01-19T22:45:18.617Z,3.74
2023-01-19T22:47:46.503Z,3.72
2023-01-19T22:50:14.041Z,3.71
2023-01-19T22:52:43.384Z,3.73
2023-01-19T22:55:11.900Z,3.75
2023-01-19T22:57:40.229Z,3.73
2023-01-19T23:00:09.202Z,3.70
2023-01-19T23:02:36.705Z,3.66
2023-01-19T23:05:05.596Z,3.65
2023-01-19T23:07:33.538Z,3.65
2023-01-19T23:10:01.267Z,3.66
2023-01-19T23:12:29.343Z,3.64
2023-01-19T23:14:56.919Z,3.60
2023-01-19T23:17:24.491Z,3.56
2023-01-19T23:19:52.008Z,3.55
2023-01-19T23:22:20.086Z,3.52
2023-01-19T23:31:37.204Z,3.52
2023-01-19T23:34:06.117Z,3.45
2023-01-19T23:36:34.653Z,3.40
2023-01-19T23:39:13.078Z,3.41
2023-01-19T23:41:40.414Z,3.41
2023-01-19T23:44:08.362Z,3.36
2023-01-19T23:46:35.188Z,3.34
2023-01-19T23:49:02.139Z,3.37
2023-01-19T23:51:30.489Z,3.38
2023-01-19T23:53:58.390Z,3.38
2023-01-19T23:56:28.235Z,3.42
2023-01-19T23:58:59.965Z,3.48
